createdAt,value
2017-04-11T00:00:45.300Z,0
2017-04-11T00:01:45.288Z,0
2017-04-11T00:02:45.530Z,0
2017-04-11T00:03:45.309Z,0
2017-04-11T00:04:45.255Z,0
2017-04-11T00:05:45.247Z,0
2017-04-11T00:06:45.232Z,0
2017-04-11T00:07:45.521Z,0
2017-04-11T00:08:45.222Z,0
2017-04-11T00:09:45.201Z,0
2017-04-11T00:10:44.891Z,0
2017-04-11T00:11:45.178Z,0
2017-04-11T00:12:45.420Z,0
2017-04-11T00:13:45.158Z,0
2017-04-11T00:14:45.148Z,0
2017-04-11T00:15:44.832Z,0
2017-04-11T00:16:45.127Z,0
2017-04-11T00:17:45.374Z,0
2017-04-11T00:18:45.104Z,0
2017-04-11T00:19:45.102Z,0
2017-04-11T00:20:45.083Z,0
2017-04-11T00:21:45.076Z,0
2017-04-11T00:22:45.366Z,0
2017-04-11T00:23:45.053Z,0
2017-04-11T00:24:45.041Z,0
2017-04-11T00:25:45.074Z,0
2017-04-11T00:26:44.718Z,0
2017-04-11T00:27:45.262Z,0
2017-04-11T00:28:45.007Z,0
2017-04-11T00:29:44.999Z,0
2017-04-11T00:30:44.981Z,0
2017-04-11T00:31:44.972Z,0
2017-04-11T00:32:45.263Z,0
2017-04-11T00:33:44.951Z,0
2017-04-11T00:34:44.941Z,0
2017-04-11T00:35:44.930Z,0
2017-04-11T00:36:44.925Z,0
2017-04-11T00:37:45.303Z,0
2017-04-11T00:38:44.598Z,0
2017-04-11T00:39:44.891Z,0
2017-04-11T00:40:44.883Z,0
2017-04-11T00:41:44.872Z,0
2017-04-11T00:42:45.173Z,0
2017-04-11T00:43:44.850Z,0
2017-04-11T00:44:44.843Z,0
2017-04-11T00:45:44.836Z,0
2017-04-11T00:46:44.823Z,0
2017-04-11T00:47:45.068Z,0
2017-04-11T00:48:44.805Z,0
2017-04-11T00:49:44.798Z,0
2017-04-11T00:50:44.780Z,0
2017-04-11T00:51:44.773Z,0
2017-04-11T00:52:45.070Z,0
2017-04-11T00:53:44.758Z,0
2017-04-11T00:54:44.748Z,0
2017-04-11T00:55:44.735Z,0
2017-04-11T00:56:44.721Z,0
2017-04-11T00:57:44.971Z,0
2017-04-11T00:58:44.704Z,0
2017-04-11T00:59:44.706Z,0
2017-04-11T01:00:44.686Z,0
2017-04-11T01:01:44.675Z,0
2017-04-11T01:02:44.913Z,0
2017-04-11T01:03:44.658Z,0
2017-04-11T01:04:44.644Z,0
2017-04-11T01:05:44.634Z,0
2017-04-11T01:06:44.624Z,0
2017-04-11T01:07:44.961Z,0
2017-04-11T01:08:44.600Z,0
2017-04-11T01:09:44.592Z,0
2017-04-11T01:10:44.583Z,0
2017-04-11T01:11:44.576Z,0
2017-04-11T01:12:44.816Z,0
2017-04-11T01:13:44.594Z,0
2017-04-11T01:14:44.544Z,0
2017-04-11T01:15:44.534Z,0
2017-04-11T01:16:44.217Z,0
2017-04-11T01:17:44.513Z,0
2017-04-11T01:18:44.499Z,0
2017-04-11T01:19:44.184Z,0
2017-04-11T01:20:44.476Z,0
2017-04-11T01:21:44.469Z,0
2017-04-11T01:22:44.711Z,0
2017-04-11T01:23:44.445Z,0
2017-04-11T01:24:44.438Z,0
2017-04-11T01:25:44.429Z,0
2017-04-11T01:26:44.113Z,0
2017-04-11T01:27:44.663Z,0
2017-04-11T01:28:44.101Z,0
2017-04-11T01:29:44.386Z,0
2017-04-11T01:30:44.375Z,0
2017-04-11T01:31:44.366Z,0
2017-04-11T01:32:44.654Z,0
2017-04-11T01:33:44.357Z,0
2017-04-11T01:34:44.334Z,0
2017-04-11T01:35:44.322Z,0
2017-04-11T01:36:44.315Z,0
2017-04-11T01:37:44.551Z,0
2017-04-11T01:38:44.291Z,0
2017-04-11T01:39:43.989Z,0
2017-04-11T01:40:43.971Z,0
2017-04-11T01:41:44.259Z,0
2017-04-11T01:42:44.602Z,0
2017-04-11T01:43:43.935Z,0
2017-04-11T01:44:44.230Z,0
2017-04-11T01:45:44.227Z,0
2017-04-11T01:46:43.602Z,0
2017-04-11T01:47:43.899Z,0
2017-04-11T01:48:44.187Z,0
2017-04-11T01:49:43.876Z,0
2017-04-11T01:50:44.168Z,0
2017-04-11T01:51:43.854Z,0
2017-04-11T01:52:43.848Z,0
2017-04-11T01:53:43.836Z,0
2017-04-11T01:54:43.826Z,0
2017-04-11T01:55:43.818Z,0
2017-04-11T01:56:44.106Z,0
2017-04-11T01:57:44.099Z,0
2017-04-11T01:58:44.089Z,0
2017-04-11T01:59:44.076Z,0
2017-04-11T02:00:44.063Z,0
2017-04-11T02:01:44.055Z,0
2017-04-11T02:02:44.042Z,0
2017-04-11T02:03:44.038Z,0
2017-04-11T02:04:44.024Z,0
2017-04-11T02:05:44.012Z,0
2017-04-11T02:06:43.998Z,0
2017-04-11T02:07:43.991Z,0
2017-04-11T02:08:43.982Z,0
2017-04-11T02:09:43.967Z,0
2017-04-11T02:10:43.960Z,0
2017-04-11T02:11:43.947Z,0
2017-04-11T02:12:43.937Z,0
2017-04-11T02:13:43.922Z,0
2017-04-11T02:14:43.912Z,0
2017-04-11T02:15:43.598Z,0
2017-04-11T02:16:43.893Z,0
2017-04-11T02:17:43.882Z,0
2017-04-11T02:18:43.870Z,0
2017-04-11T02:19:43.557Z,0
2017-04-11T02:20:43.549Z,0
2017-04-11T02:21:43.841Z,0
2017-04-11T02:22:43.832Z,0
2017-04-11T02:23:43.821Z,0
2017-04-11T02:24:43.813Z,0
2017-04-11T02:25:43.799Z,0
2017-04-11T02:26:43.788Z,0
2017-04-11T02:27:43.782Z,0
2017-04-11T02:28:43.768Z,0
2017-04-11T02:29:43.753Z,0
2017-04-11T02:30:43.746Z,0
2017-04-11T02:31:43.735Z,0
2017-04-11T02:32:43.720Z,0
2017-04-11T02:33:43.718Z,0
2017-04-11T02:34:43.699Z,0
2017-04-11T02:35:43.692Z,0
2017-04-11T02:36:43.372Z,0
2017-04-11T02:37:43.674Z,0
2017-04-11T02:38:43.905Z,0
2017-04-11T02:39:43.676Z,0
2017-04-11T02:40:43.631Z,0
2017-04-11T02:41:43.623Z,0
2017-04-11T02:42:43.614Z,0
2017-04-11T02:43:43.853Z,0
2017-04-11T02:44:43.591Z,0
2017-04-11T02:45:43.580Z,0
2017-04-11T02:46:43.569Z,0
2017-04-11T02:47:43.559Z,0
2017-04-11T02:48:43.854Z,0
2017-04-11T02:49:43.540Z,0
2017-04-11T02:50:43.525Z,0
2017-04-11T02:51:43.515Z,0
2017-04-11T02:52:43.508Z,0
2017-04-11T02:53:43.741Z,0
2017-04-11T02:54:43.482Z,0
2017-04-11T02:55:43.475Z,0
2017-04-11T02:56:43.460Z,0
2017-04-11T02:57:43.449Z,0
2017-04-11T02:58:43.788Z,0
2017-04-11T02:59:43.429Z,0
2017-04-11T03:00:43.418Z,0
2017-04-11T03:01:43.412Z,0
2017-04-11T03:02:43.400Z,0
2017-04-11T03:03:43.737Z,0
2017-04-11T03:04:43.378Z,0
2017-04-11T03:05:43.364Z,0
2017-04-11T03:06:43.353Z,0
2017-04-11T03:07:43.043Z,0
2017-04-11T03:08:43.583Z,0
2017-04-11T03:09:43.329Z,0
2017-04-11T03:10:43.309Z,0
2017-04-11T03:11:43.301Z,0
2017-04-11T03:12:43.303Z,0
2017-04-11T03:13:43.533Z,0
2017-04-11T03:14:43.268Z,0
2017-04-11T03:15:42.955Z,0
2017-04-11T03:16:43.249Z,0
2017-04-11T03:17:42.933Z,0
2017-04-11T03:18:43.478Z,0
2017-04-11T03:19:43.214Z,0
2017-04-11T03:20:43.204Z,0
2017-04-11T03:21:43.194Z,0
2017-04-11T03:22:43.184Z,0
2017-04-11T03:23:43.422Z,0
2017-04-11T03:24:43.164Z,0
2017-04-11T03:25:43.149Z,0
2017-04-11T03:26:43.144Z,0
2017-04-11T03:27:43.134Z,0
2017-04-11T03:28:43.419Z,0
2017-04-11T03:29:43.110Z,0
2017-04-11T03:30:43.096Z,0
2017-04-11T03:31:43.088Z,0
2017-04-11T03:32:43.083Z,0
2017-04-11T03:33:43.116Z,0
2017-04-11T03:34:42.753Z,0
2017-04-11T03:35:43.045Z,0
2017-04-11T03:36:43.040Z,0
2017-04-11T03:37:43.037Z,0
2017-04-11T03:38:43.318Z,0
2017-04-11T03:39:43.005Z,0
2017-04-11T03:40:42.992Z,0
2017-04-11T03:41:42.985Z,0
2017-04-11T03:42:42.974Z,0
2017-04-11T03:43:43.212Z,0
2017-04-11T03:44:42.957Z,0
2017-04-11T03:45:42.941Z,0
2017-04-11T03:46:42.932Z,4
2017-04-11T03:47:42.924Z,4
2017-04-11T03:48:43.165Z,4
2017-04-11T03:49:42.904Z,4
2017-04-11T03:50:42.891Z,8
2017-04-11T03:51:42.878Z,12
2017-04-11T03:52:42.871Z,8
2017-04-11T03:53:43.108Z,12
2017-04-11T03:54:42.888Z,16
2017-04-11T03:55:42.539Z,20
2017-04-11T03:56:42.828Z,24
2017-04-11T03:57:42.820Z,32
2017-04-11T03:58:43.064Z,36
2017-04-11T03:59:42.801Z,40
2017-04-11T04:00:42.791Z,48
2017-04-11T04:01:42.474Z,60
2017-04-11T04:02:42.778Z,68
2017-04-11T04:03:43.062Z,76
2017-04-11T04:04:42.446Z,88
2017-04-11T04:05:42.744Z,100
2017-04-11T04:06:42.729Z,116
2017-04-11T04:07:42.416Z,132
2017-04-11T04:08:43.008Z,180
2017-04-11T04:09:42.698Z,208
2017-04-11T04:10:42.384Z,232
2017-04-11T04:11:42.071Z,256
2017-04-11T04:12:42.663Z,280
2017-04-11T04:13:42.909Z,308
2017-04-11T04:14:42.648Z,336
2017-04-11T04:15:42.634Z,368
2017-04-11T04:16:42.639Z,404
2017-04-11T04:17:42.613Z,436
2017-04-11T04:18:42.550Z,476
2017-04-11T04:19:42.288Z,512
2017-04-11T04:20:42.580Z,552
2017-04-11T04:21:42.575Z,592
2017-04-11T04:22:42.255Z,636
2017-04-11T04:23:42.796Z,680
2017-04-11T04:24:41.931Z,724
2017-04-11T04:25:42.525Z,772
2017-04-11T04:26:42.514Z,820
2017-04-11T04:27:42.201Z,832
2017-04-11T04:28:42.747Z,884
2017-04-11T04:29:42.486Z,940
2017-04-11T04:30:42.479Z,1000
2017-04-11T04:31:42.458Z,1068
2017-04-11T04:32:42.450Z,1140
2017-04-11T04:33:42.736Z,1228
2017-04-11T04:34:41.821Z,1288
2017-04-11T04:35:42.415Z,1384
2017-04-11T04:36:42.103Z,1484
2017-04-11T04:37:42.400Z,1592
2017-04-11T04:38:42.632Z,1768
2017-04-11T04:39:42.376Z,1820
2017-04-11T04:40:42.058Z,1980
2017-04-11T04:41:42.048Z,2020
2017-04-11T04:42:42.344Z,2544
2017-04-11T04:43:42.029Z,2756
2017-04-11T04:44:42.014Z,2524
2017-04-11T04:45:42.309Z,3064
2017-04-11T04:46:41.989Z,3224
2017-04-11T04:47:41.981Z,3416
2017-04-11T04:48:42.275Z,3568
2017-04-11T04:49:42.270Z,3800
2017-04-11T04:50:42.282Z,4036
2017-04-11T04:51:42.239Z,4212
2017-04-11T04:52:42.232Z,4456
2017-04-11T04:53:41.919Z,4636
2017-04-11T04:54:42.209Z,4408
2017-04-11T04:55:42.207Z,4200
2017-04-11T04:56:41.592Z,3344
2017-04-11T04:57:41.573Z,3292
2017-04-11T04:58:41.869Z,3268
2017-04-11T04:59:42.162Z,3552
2017-04-11T05:00:42.151Z,3448
2017-04-11T05:01:42.139Z,3248
2017-04-11T05:02:42.135Z,3308
2017-04-11T05:03:42.121Z,3260
2017-04-11T05:04:42.121Z,3320
2017-04-11T05:05:42.103Z,3752
2017-04-11T05:06:42.093Z,6412
2017-04-11T05:07:42.090Z,6048
2017-04-11T05:08:42.092Z,4760
2017-04-11T05:09:41.768Z,5340
2017-04-11T05:10:42.056Z,7220
2017-04-11T05:11:42.055Z,7680
2017-04-11T05:12:42.038Z,6444
2017-04-11T05:13:42.028Z,4264
2017-04-11T05:14:42.021Z,6268
2017-04-11T05:15:42.012Z,7584
2017-04-11T05:16:42.005Z,8000
2017-04-11T05:17:41.993Z,7916
2017-04-11T05:18:41.987Z,8372
2017-04-11T05:19:41.984Z,7612
2017-04-11T05:20:41.678Z,9164
2017-04-11T05:21:41.961Z,9536
2017-04-11T05:22:41.957Z,9652
2017-04-11T05:23:41.947Z,10220
2017-04-11T05:24:41.936Z,10044
2017-04-11T05:25:41.966Z,10244
2017-04-11T05:26:41.926Z,10816
2017-04-11T05:27:41.920Z,11240
2017-04-11T05:28:41.917Z,11264
2017-04-11T05:29:41.906Z,11576
2017-04-11T05:30:41.899Z,11756
2017-04-11T05:31:41.893Z,12392
2017-04-11T05:32:41.890Z,12772
2017-04-11T05:33:41.882Z,13504
2017-04-11T05:34:41.583Z,13636
2017-04-11T05:35:41.873Z,14260
2017-04-11T05:36:41.866Z,15040
2017-04-11T05:37:41.861Z,16032
2017-04-11T05:38:41.857Z,17280
2017-04-11T05:39:41.854Z,17760
2017-04-11T05:40:41.849Z,15840
2017-04-11T05:41:41.843Z,15840
2017-04-11T05:42:41.841Z,13536
2017-04-11T05:43:41.841Z,13444
2017-04-11T05:44:42.180Z,11176
2017-04-11T05:45:41.831Z,9992
2017-04-11T05:46:41.827Z,10156
2017-04-11T05:47:41.866Z,9348
2017-04-11T05:48:41.817Z,8672
2017-04-11T05:49:41.515Z,8604
2017-04-11T05:50:41.809Z,8236
2017-04-11T05:51:41.808Z,7576
2017-04-11T05:52:41.807Z,7460
2017-04-11T05:53:41.801Z,7572
2017-04-11T05:54:41.799Z,7564
2017-04-11T05:55:41.826Z,7304
2017-04-11T05:56:41.789Z,7196
2017-04-11T05:57:41.790Z,7048
2017-04-11T05:58:41.793Z,7080
2017-04-11T05:59:41.779Z,7336
2017-04-11T06:00:41.776Z,7692
2017-04-11T06:01:41.777Z,8428
2017-04-11T06:02:41.767Z,9056
2017-04-11T06:03:41.760Z,9140
2017-04-11T06:04:41.757Z,9368
2017-04-11T06:05:41.753Z,9664
2017-04-11T06:06:41.746Z,9924
2017-04-11T06:07:41.741Z,10228
2017-04-11T06:08:41.736Z,10668
2017-04-11T06:09:41.730Z,11376
2017-04-11T06:10:41.429Z,11396
2017-04-11T06:11:41.421Z,11416
2017-04-11T06:12:41.412Z,11204
2017-04-11T06:13:41.410Z,11440
2017-04-11T06:14:42.012Z,11424
2017-04-11T06:15:41.698Z,11696
2017-04-11T06:16:41.392Z,12460
2017-04-11T06:17:41.691Z,12300
2017-04-11T06:18:41.383Z,12624
2017-04-11T06:19:41.940Z,15520
2017-04-11T06:20:41.672Z,16064
2017-04-11T06:21:41.670Z,16800
2017-04-11T06:22:41.695Z,15004
2017-04-11T06:23:41.658Z,12568
2017-04-11T06:24:42.003Z,10896
2017-04-11T06:25:41.038Z,9188
2017-04-11T06:26:41.643Z,9000
2017-04-11T06:27:41.334Z,9212
2017-04-11T06:28:41.332Z,9484
2017-04-11T06:29:41.976Z,10188
2017-04-11T06:30:41.624Z,11848
2017-04-11T06:31:41.613Z,12484
2017-04-11T06:32:41.607Z,12080
2017-04-11T06:33:41.601Z,12204
2017-04-11T06:34:41.845Z,11072
2017-04-11T06:35:41.628Z,11364
2017-04-11T06:36:41.586Z,11436
2017-04-11T06:37:41.577Z,11084
2017-04-11T06:38:41.583Z,11488
2017-04-11T06:39:41.828Z,11776
2017-04-11T06:40:41.566Z,13088
2017-04-11T06:41:41.559Z,13364
2017-04-11T06:42:41.570Z,12692
2017-04-11T06:43:41.558Z,13228
2017-04-11T06:44:41.841Z,13704
2017-04-11T06:45:41.536Z,13784
2017-04-11T06:46:41.531Z,13464
2017-04-11T06:47:41.527Z,14216
2017-04-11T06:48:41.519Z,14344
2017-04-11T06:49:41.766Z,14220
2017-04-11T06:50:41.510Z,13652
2017-04-11T06:51:41.502Z,13448
2017-04-11T06:52:41.499Z,12908
2017-04-11T06:53:41.494Z,11960
2017-04-11T06:54:41.736Z,11252
2017-04-11T06:55:41.481Z,10336
2017-04-11T06:56:41.477Z,9892
2017-04-11T06:57:41.481Z,9792
2017-04-11T06:58:41.160Z,9828
2017-04-11T06:59:41.759Z,9084
2017-04-11T07:00:40.851Z,7268
2017-04-11T07:01:41.447Z,6804
2017-04-11T07:02:41.443Z,5568
2017-04-11T07:03:41.435Z,5692
2017-04-11T07:04:41.782Z,7660
2017-04-11T07:05:41.423Z,10936
2017-04-11T07:06:41.766Z,11960
2017-04-11T07:07:41.413Z,12828
2017-04-11T07:08:41.412Z,14580
2017-04-11T07:09:41.656Z,16224
2017-04-11T07:10:41.394Z,14688
2017-04-11T07:11:41.387Z,12992
2017-04-11T07:12:41.084Z,13376
2017-04-11T07:13:41.378Z,12760
2017-04-11T07:14:41.678Z,12456
2017-04-11T07:15:41.369Z,11984
2017-04-11T07:16:41.361Z,8516
2017-04-11T07:17:41.352Z,6620
2017-04-11T07:18:41.349Z,5980
2017-04-11T07:19:41.644Z,5808
2017-04-11T07:20:41.340Z,5332
2017-04-11T07:21:41.336Z,6004
2017-04-11T07:22:41.328Z,6848
2017-04-11T07:23:41.325Z,7408
2017-04-11T07:24:41.566Z,9568
2017-04-11T07:25:41.658Z,11728
2017-04-11T07:26:41.339Z,13148
2017-04-11T07:27:41.297Z,14180
2017-04-11T07:28:41.292Z,13916
2017-04-11T07:29:41.634Z,14172
2017-04-11T07:30:41.279Z,14188
2017-04-11T07:31:40.967Z,12180
2017-04-11T07:32:41.265Z,10904
2017-04-11T07:33:41.257Z,12480
2017-04-11T07:34:41.537Z,12564
2017-04-11T07:35:41.252Z,12484
2017-04-11T07:36:41.242Z,11504
2017-04-11T07:37:41.241Z,11108
2017-04-11T07:38:41.230Z,11060
2017-04-11T07:39:41.474Z,13108
2017-04-11T07:40:41.265Z,11648
2017-04-11T07:41:41.223Z,9796
2017-04-11T07:42:41.213Z,11220
2017-04-11T07:43:41.203Z,12796
2017-04-11T07:44:41.498Z,11964
2017-04-11T07:45:41.188Z,14412
2017-04-11T07:46:41.185Z,13624
2017-04-11T07:47:40.880Z,10688
2017-04-11T07:48:41.175Z,10512
2017-04-11T07:49:41.419Z,10700
2017-04-11T07:50:41.167Z,12072
2017-04-11T07:51:41.153Z,13628
2017-04-11T07:52:41.147Z,14476
2017-04-11T07:53:41.145Z,14276
2017-04-11T07:54:41.435Z,13368
2017-04-11T07:55:41.132Z,12180
2017-04-11T07:56:41.124Z,11052
2017-04-11T07:57:41.121Z,9972
2017-04-11T07:58:41.117Z,8856
2017-04-11T07:59:41.364Z,9308
2017-04-11T08:00:41.106Z,10136
2017-04-11T08:01:41.102Z,10436
2017-04-11T08:02:41.093Z,9920
2017-04-11T08:03:41.097Z,7428
2017-04-11T08:04:41.381Z,8592
2017-04-11T08:05:41.078Z,11896
2017-04-11T08:06:41.069Z,11728
2017-04-11T08:07:41.065Z,10580
2017-04-11T08:08:41.056Z,10664
2017-04-11T08:09:41.304Z,11296
2017-04-11T08:10:41.043Z,11648
2017-04-11T08:11:41.050Z,7888
2017-04-11T08:12:41.035Z,7032
2017-04-11T08:13:41.028Z,6936
2017-04-11T08:14:40.965Z,7292
2017-04-11T08:15:41.017Z,7268
2017-04-11T08:16:41.018Z,6580
2017-04-11T08:17:41.001Z,5808
2017-04-11T08:18:41.001Z,5896
2017-04-11T08:19:41.342Z,7492
2017-04-11T08:20:40.995Z,5364
2017-04-11T08:21:40.982Z,4204
2017-04-11T08:22:40.971Z,4852
2017-04-11T08:23:40.974Z,5560
2017-04-11T08:24:40.909Z,5688
2017-04-11T08:25:40.953Z,6200
2017-04-11T08:26:40.945Z,6312
2017-04-11T08:27:40.942Z,6732
2017-04-11T08:28:40.933Z,7328
2017-04-11T08:29:41.189Z,6784
2017-04-11T08:30:40.922Z,7512
2017-04-11T08:31:40.611Z,8320
2017-04-11T08:32:40.910Z,9416
2017-04-11T08:33:40.905Z,10664
2017-04-11T08:34:41.143Z,14144
2017-04-11T08:35:40.886Z,15796
2017-04-11T08:36:40.882Z,18240
2017-04-11T08:37:40.873Z,18688
2017-04-11T08:38:40.906Z,16384
2017-04-11T08:39:41.194Z,17568
2017-04-11T08:40:40.852Z,19776
2017-04-11T08:41:40.853Z,18336
2017-04-11T08:42:40.840Z,19104
2017-04-11T08:43:40.834Z,19680
2017-04-11T08:44:41.286Z,19296
2017-04-11T08:45:40.823Z,20064
2017-04-11T08:46:40.826Z,20864
2017-04-11T08:47:40.811Z,21184
2017-04-11T08:48:40.805Z,23616
2017-04-11T08:49:41.101Z,27168
2017-04-11T08:50:40.794Z,23392
2017-04-11T08:51:40.787Z,24576
2017-04-11T08:52:40.782Z,20864
2017-04-11T08:53:40.780Z,18912
2017-04-11T08:54:41.021Z,17248
2017-04-11T08:55:40.766Z,20928
2017-04-11T08:56:40.808Z,21408
2017-04-11T08:57:40.755Z,22784
2017-04-11T08:58:40.753Z,23808
2017-04-11T08:59:40.997Z,24320
2017-04-11T09:00:40.747Z,25184
2017-04-11T09:01:40.738Z,23744
2017-04-11T09:02:40.733Z,18016
2017-04-11T09:03:40.727Z,13648
2017-04-11T09:04:41.080Z,12436
2017-04-11T09:05:40.720Z,12732
2017-04-11T09:06:40.716Z,14152
2017-04-11T09:07:40.712Z,15840
2017-04-11T09:08:40.703Z,13992
2017-04-11T09:09:40.958Z,13392
2017-04-11T09:10:40.708Z,16352
2017-04-11T09:11:40.693Z,20000
2017-04-11T09:12:40.695Z,20608
2017-04-11T09:13:40.687Z,21408
2017-04-11T09:14:40.977Z,21856
2017-04-11T09:15:40.674Z,18624
2017-04-11T09:16:40.713Z,17184
2017-04-11T09:17:40.670Z,18816
2017-04-11T09:18:40.366Z,19488
2017-04-11T09:19:40.662Z,21664
2017-04-11T09:20:40.652Z,22816
2017-04-11T09:21:40.345Z,22432
2017-04-11T09:22:40.644Z,26176
2017-04-11T09:23:40.641Z,29056
2017-04-11T09:24:40.890Z,23360
2017-04-11T09:25:40.630Z,15416
2017-04-11T09:26:40.328Z,10792
2017-04-11T09:27:40.623Z,7364
2017-04-11T09:28:40.622Z,6948
2017-04-11T09:29:40.868Z,10032
2017-04-11T09:30:40.612Z,11636
2017-04-11T09:31:40.618Z,10476
2017-04-11T09:32:40.608Z,13252
2017-04-11T09:33:40.603Z,20544
2017-04-11T09:34:40.855Z,23648
2017-04-11T09:35:40.592Z,20224
2017-04-11T09:36:40.293Z,15184
2017-04-11T09:37:40.587Z,12740
2017-04-11T09:38:40.582Z,12584
2017-04-11T09:39:40.533Z,13616
2017-04-11T09:40:40.575Z,13196
2017-04-11T09:41:40.581Z,10768
2017-04-11T09:42:40.570Z,9404
2017-04-11T09:43:40.561Z,7912
2017-04-11T09:44:40.811Z,6800
2017-04-11T09:45:40.550Z,6568
2017-04-11T09:46:40.549Z,6800
2017-04-11T09:47:40.549Z,6944
2017-04-11T09:48:40.543Z,5544
2017-04-11T09:49:40.836Z,4696
2017-04-11T09:50:40.533Z,4908
2017-04-11T09:51:40.530Z,6876
2017-04-11T09:52:40.524Z,9040
2017-04-11T09:53:40.522Z,11436
2017-04-11T09:54:40.865Z,14020
2017-04-11T09:55:40.503Z,18272
2017-04-11T09:56:40.503Z,20096
2017-04-11T09:57:40.495Z,17216
2017-04-11T09:58:40.494Z,16576
2017-04-11T09:59:40.543Z,13776
2017-04-11T10:00:40.480Z,13396
2017-04-11T10:01:40.481Z,19296
2017-04-11T10:02:40.472Z,21856
2017-04-11T10:03:40.475Z,16288
2017-04-11T10:04:40.458Z,15068
2017-04-11T10:05:40.459Z,15388
2017-04-11T10:06:39.846Z,17376
2017-04-11T10:07:40.447Z,19008
2017-04-11T10:08:40.143Z,25792
2017-04-11T10:09:40.430Z,26624
2017-04-11T10:10:40.126Z,23424
2017-04-11T10:11:40.440Z,18816
2017-04-11T10:12:40.117Z,15344
2017-04-11T10:13:40.417Z,13032
2017-04-11T10:14:40.659Z,14136
2017-04-11T10:15:40.112Z,17376
2017-04-11T10:16:40.402Z,17184
2017-04-11T10:17:40.100Z,18304
2017-04-11T10:18:40.088Z,17824
2017-04-11T10:19:40.689Z,19680
2017-04-11T10:20:40.388Z,19712
2017-04-11T10:21:40.381Z,17376
2017-04-11T10:22:40.073Z,15372
2017-04-11T10:23:40.373Z,15948
2017-04-11T10:24:40.062Z,18304
2017-04-11T10:25:39.756Z,17184
2017-04-11T10:26:40.055Z,17824
2017-04-11T10:27:40.050Z,19648
2017-04-11T10:28:40.361Z,18784
2017-04-11T10:29:40.041Z,17792
2017-04-11T10:30:40.037Z,15024
2017-04-11T10:31:40.331Z,11336
2017-04-11T10:32:40.030Z,10664
2017-04-11T10:33:39.732Z,11332
2017-04-11T10:34:40.019Z,10764
2017-04-11T10:35:40.020Z,10632
2017-04-11T10:36:40.322Z,12456
2017-04-11T10:37:40.318Z,15600
2017-04-11T10:38:39.702Z,18976
2017-04-11T10:39:40.006Z,18368
2017-04-11T10:40:40.301Z,12824
2017-04-11T10:41:40.007Z,11228
2017-04-11T10:42:40.296Z,13960
2017-04-11T10:43:40.295Z,15748
2017-04-11T10:44:40.286Z,17088
2017-04-11T10:45:39.980Z,15836
2017-04-11T10:46:40.282Z,13284
2017-04-11T10:47:40.285Z,13072
2017-04-11T10:48:39.972Z,14164
2017-04-11T10:49:40.270Z,12776
2017-04-11T10:50:40.268Z,9964
2017-04-11T10:51:39.965Z,10120
2017-04-11T10:52:40.256Z,12652
2017-04-11T10:53:40.252Z,17024
2017-04-11T10:54:39.948Z,23168
2017-04-11T10:55:40.248Z,25120
2017-04-11T10:56:39.948Z,24160
2017-04-11T10:57:39.936Z,22752
2017-04-11T10:58:39.931Z,22752
2017-04-11T10:59:40.232Z,23712
2017-04-11T11:00:39.925Z,22464
2017-04-11T11:01:40.232Z,21216
2017-04-11T11:02:39.924Z,21568
2017-04-11T11:03:39.918Z,21664
2017-04-11T11:04:40.216Z,20864
2017-04-11T11:05:40.213Z,19904
2017-04-11T11:06:40.211Z,20416
2017-04-11T11:07:39.909Z,19072
2017-04-11T11:08:39.912Z,16544
2017-04-11T11:09:39.900Z,13264
2017-04-11T11:10:40.201Z,10212
2017-04-11T11:11:40.196Z,10076
2017-04-11T11:12:40.201Z,10748
2017-04-11T11:13:40.204Z,9604
2017-04-11T11:14:40.192Z,9208
2017-04-11T11:15:39.899Z,7952
2017-04-11T11:16:39.880Z,7540
2017-04-11T11:17:40.183Z,8096
2017-04-11T11:18:39.879Z,9460
2017-04-11T11:19:39.569Z,11028
2017-04-11T11:20:40.217Z,13224
2017-04-11T11:21:39.561Z,16768
2017-04-11T11:22:39.868Z,17504
2017-04-11T11:23:39.859Z,19328
2017-04-11T11:24:39.858Z,22720
2017-04-11T11:25:40.407Z,24640
2017-04-11T11:26:39.856Z,24384
2017-04-11T11:27:39.844Z,22048
2017-04-11T11:28:40.146Z,18816
2017-04-11T11:29:40.145Z,13680
2017-04-11T11:30:40.086Z,9512
2017-04-11T11:31:40.136Z,7524
2017-04-11T11:32:40.187Z,6464
2017-04-11T11:33:40.131Z,7328
2017-04-11T11:34:40.127Z,8472
2017-04-11T11:35:40.475Z,9352
2017-04-11T11:36:40.121Z,12796
2017-04-11T11:37:40.121Z,15856
2017-04-11T11:38:40.119Z,15700
2017-04-11T11:39:39.514Z,14580
2017-04-11T11:40:40.456Z,13440
2017-04-11T11:41:40.113Z,12516
2017-04-11T11:42:39.801Z,11408
2017-04-11T11:43:39.797Z,10316
2017-04-11T11:44:39.788Z,9360
2017-04-11T11:45:40.040Z,8596
2017-04-11T11:46:39.781Z,8532
2017-04-11T11:47:40.085Z,8560
2017-04-11T11:48:39.773Z,9108
2017-04-11T11:49:40.074Z,10852
2017-04-11T11:50:40.420Z,14424
2017-04-11T11:51:39.762Z,18016
2017-04-11T11:52:40.072Z,20256
2017-04-11T11:53:39.759Z,21728
2017-04-11T11:54:40.052Z,23200
2017-04-11T11:55:40.000Z,23584
2017-04-11T11:56:40.051Z,23008
2017-04-11T11:57:40.039Z,20032
2017-04-11T11:58:40.039Z,17984
2017-04-11T11:59:40.038Z,15588
2017-04-11T12:00:40.282Z,11612
2017-04-11T12:01:39.723Z,7804
2017-04-11T12:02:39.720Z,5460
2017-04-11T12:03:40.231Z,6244
2017-04-11T12:04:40.014Z,10932
2017-04-11T12:05:40.267Z,14768
2017-04-11T12:06:40.025Z,13556
2017-04-11T12:07:40.008Z,10436
2017-04-11T12:08:39.700Z,8436
2017-04-11T12:09:40.000Z,7240
2017-04-11T12:10:40.292Z,7920
2017-04-11T12:11:39.989Z,8776
2017-04-11T12:12:39.985Z,7700
2017-04-11T12:13:39.674Z,6168
2017-04-11T12:14:39.978Z,5640
2017-04-11T12:15:39.919Z,5612
2017-04-11T12:16:39.664Z,5732
2017-04-11T12:17:39.968Z,5252
2017-04-11T12:18:39.701Z,5344
2017-04-11T12:19:39.954Z,6244
2017-04-11T12:20:40.001Z,7944
2017-04-11T12:21:39.945Z,10036
2017-04-11T12:22:39.944Z,9852
2017-04-11T12:23:39.638Z,8208
2017-04-11T12:24:39.631Z,7504
2017-04-11T12:25:39.874Z,7132
2017-04-11T12:26:39.616Z,7284
2017-04-11T12:27:39.613Z,10848
2017-04-11T12:28:39.616Z,17472
2017-04-11T12:29:39.912Z,18720
2017-04-11T12:30:40.160Z,13976
2017-04-11T12:31:39.895Z,9924
2017-04-11T12:32:39.288Z,8756
2017-04-11T12:33:39.584Z,10576
2017-04-11T12:34:39.578Z,12636
2017-04-11T12:35:39.925Z,11524
2017-04-11T12:36:39.872Z,8600
2017-04-11T12:37:39.562Z,7316
2017-04-11T12:38:39.858Z,8788
2017-04-11T12:39:39.858Z,13576
2017-04-11T12:40:39.897Z,16864
2017-04-11T12:41:39.841Z,16352
2017-04-11T12:42:39.845Z,16576
2017-04-11T12:43:39.832Z,18752
2017-04-11T12:44:39.828Z,20224
2017-04-11T12:45:40.122Z,19872
2017-04-11T12:46:39.820Z,20480
2017-04-11T12:47:39.819Z,20128
2017-04-11T12:48:39.507Z,20064
2017-04-11T12:49:39.803Z,19552
2017-04-11T12:50:39.742Z,18592
2017-04-11T12:51:39.493Z,18208
2017-04-11T12:52:39.789Z,18112
2017-04-11T12:53:39.785Z,17824
2017-04-11T12:54:39.778Z,17920
2017-04-11T12:55:40.026Z,18336
2017-04-11T12:56:39.769Z,18496
2017-04-11T12:57:39.769Z,18624
2017-04-11T12:58:39.766Z,19008
2017-04-11T12:59:39.762Z,18752
2017-04-11T13:00:40.004Z,16736
2017-04-11T13:01:39.748Z,13460
2017-04-11T13:02:39.745Z,10924
2017-04-11T13:03:39.135Z,9972
2017-04-11T13:04:39.741Z,11244
2017-04-11T13:05:39.991Z,11636
2017-04-11T13:06:39.731Z,9752
2017-04-11T13:07:39.726Z,8156
2017-04-11T13:08:39.723Z,8268
2017-04-11T13:09:39.717Z,8576
2017-04-11T13:10:39.971Z,8640
2017-04-11T13:11:39.410Z,8580
2017-04-11T13:12:39.401Z,8412
2017-04-11T13:13:39.400Z,9040
2017-04-11T13:14:39.699Z,10824
2017-04-11T13:15:39.996Z,13800
2017-04-11T13:16:39.689Z,15328
2017-04-11T13:17:39.687Z,15024
2017-04-11T13:18:39.684Z,14828
2017-04-11T13:19:39.680Z,15208
2017-04-11T13:20:39.927Z,15624
2017-04-11T13:21:39.367Z,15264
2017-04-11T13:22:39.667Z,13528
2017-04-11T13:23:39.665Z,10764
2017-04-11T13:24:39.655Z,9384
2017-04-11T13:25:39.642Z,7948
2017-04-11T13:26:39.347Z,6196
2017-04-11T13:27:39.648Z,5376
2017-04-11T13:28:39.648Z,6000
2017-04-11T13:29:39.634Z,8332
2017-04-11T13:30:39.883Z,10480
2017-04-11T13:31:39.627Z,9476